sensor_id;sensor_type;location;lat;lon;timestamp;temperature;humidity
3067;DHT22;1544;48.834;9.194;2024-03-22T00:00:54;11.40;40.70
3067;DHT22;1544;48.834;9.194;2024-03-22T00:03:29;11.40;40.90
3067;DHT22;1544;48.834;9.194;2024-03-22T00:06:04;11.30;40.90
3067;DHT22;1544;48.834;9.194;2024-03-22T00:08:39;11.30;41.10
3067;DHT22;1544;48.834;9.194;2024-03-22T00:11:14;11.30;41.20
3067;DHT22;1544;48.834;9.194;2024-03-22T00:13:49;11.20;41.10
3067;DHT22;1544;48.834;9.194;2024-03-22T00:16:24;11.20;41.20
3067;DHT22;1544;48.834;9.194;2024-03-22T00:18:59;11.10;41.30
3067;DHT22;1544;48.834;9.194;2024-03-22T00:21:34;11.10;41.40
3067;DHT22;1544;48.834;9.194;2024-03-22T00:24:09;11.00;41.40
3067;DHT22;1544;48.834;9.194;2024-03-22T00:26:44;11.00;41.60
3067;DHT22;1544;48.834;9.194;2024-03-22T00:29:23;10.90;41.50
3067;DHT22;1544;48.834;9.194;2024-03-22T00:31:58;10.90;41.60
3067;DHT22;1544;48.834;9.194;2024-03-22T00:34:34;10.80;41.60
3067;DHT22;1544;48.834;9.194;2024-03-22T00:37:09;10.70;41.60
3067;DHT22;1544;48.834;9.194;2024-03-22T00:39:44;10.70;41.80
3067;DHT22;1544;48.834;9.194;2024-03-22T00:42:19;10.60;41.80
3067;DHT22;1544;48.834;9.194;2024-03-22T00:44:54;10.60;41.90
3067;DHT22;1544;48.834;9.194;2024-03-22T00:47:29;10.60;42.00
3067;DHT22;1544;48.834;9.194;2024-03-22T00:50:05;10.50;42.10
3067;DHT22;1544;48.834;9.194;2024-03-22T00:52:40;10.50;42.30
3067;DHT22;1544;48.834;9.194;2024-03-22T00:55:16;10.50;42.50
3067;DHT22;1544;48.834;9.194;2024-03-22T00:57:51;10.40;42.80
3067;DHT22;1544;48.834;9.194;2024-03-22T01:00:26;10.40;42.90
3067;DHT22;1544;48.834;9.194;2024-03-22T01:03:02;10.40;43.00
3067;DHT22;1544;48.834;9.194;2024-03-22T01:05:37;10.30;43.00
3067;DHT22;1544;48.834;9.194;2024-03-22T01:08:12;10.30;43.00
3067;DHT22;1544;48.834;9.194;2024-03-22T01:10:47;10.20;43.00
3067;DHT22;1544;48.834;9.194;2024-03-22T01:13:23;10.20;43.10
3067;DHT22;1544;48.834;9.194;2024-03-22T01:15:58;10.20;43.20
3067;DHT22;1544;48.834;9.194;2024-03-22T01:18:32;10.10;43.20
3067;DHT22;1544;48.834;9.194;2024-03-22T01:21:08;10.10;43.40
3067;DHT22;1544;48.834;9.194;2024-03-22T01:23:43;10.00;43.40
3067;DHT22;1544;48.834;9.194;2024-03-22T01:26:17;10.00;43.50
3067;DHT22;1544;48.834;9.194;2024-03-22T01:28:52;9.90;44.50
3067;DHT22;1544;48.834;9.194;2024-03-22T01:31:27;9.90;44.90
3067;DHT22;1544;48.834;9.194;2024-03-22T01:34:02;9.80;45.10
3067;DHT22;1544;48.834;9.194;2024-03-22T01:36:37;9.80;45.20
3067;DHT22;1544;48.834;9.194;2024-03-22T01:39:12;9.80;45.20
3067;DHT22;1544;48.834;9.194;2024-03-22T01:41:49;9.70;45.20
3067;DHT22;1544;48.834;9.194;2024-03-22T01:44:27;9.70;45.30
3067;DHT22;1544;48.834;9.194;2024-03-22T01:47:03;9.70;45.40
3067;DHT22;1544;48.834;9.194;2024-03-22T01:49:38;9.60;45.40
3067;DHT22;1544;48.834;9.194;2024-03-22T01:52:14;9.60;45.50
3067;DHT22;1544;48.834;9.194;2024-03-22T01:54:50;9.50;45.50
3067;DHT22;1544;48.834;9.194;2024-03-22T01:57:25;9.50;45.60
3067;DHT22;1544;48.834;9.194;2024-03-22T02:00:00;9.50;45.60
3067;DHT22;1544;48.834;9.194;2024-03-22T02:02:35;9.40;45.70
3067;DHT22;1544;48.834;9.194;2024-03-22T02:05:51;9.40;45.90
3067;DHT22;1544;48.834;9.194;2024-03-22T02:08:26;9.30;46.00
3067;DHT22;1544;48.834;9.194;2024-03-22T02:11:01;9.30;46.10
3067;DHT22;1544;48.834;9.194;2024-03-22T02:13:36;9.30;46.30
3067;DHT22;1544;48.834;9.194;2024-03-22T02:16:12;9.20;46.40
3067;DHT22;1544;48.834;9.194;2024-03-22T02:18:47;9.20;46.60
3067;DHT22;1544;48.834;9.194;2024-03-22T02:21:22;9.20;46.70
3067;DHT22;1544;48.834;9.194;2024-03-22T02:23:57;9.10;46.90
3067;DHT22;1544;48.834;9.194;2024-03-22T02:26:32;9.10;47.30
3067;DHT22;1544;48.834;9.194;2024-03-22T02:29:07;9.10;48.10
3067;DHT22;1544;48.834;9.194;2024-03-22T02:31:42;9.10;48.70
3067;DHT22;1544;48.834;9.194;2024-03-22T02:34:17;9.10;49.00
3067;DHT22;1544;48.834;9.194;2024-03-22T02:36:52;9.10;49.30
3067;DHT22;1544;48.834;9.194;2024-03-22T02:39:27;9.10;49.60
3067;DHT22;1544;48.834;9.194;2024-03-22T02:42:03;9.10;50.00
3067;DHT22;1544;48.834;9.194;2024-03-22T02:44:38;9.10;50.30
3067;DHT22;1544;48.834;9.194;2024-03-22T02:47:17;9.10;50.30
3067;DHT22;1544;48.834;9.194;2024-03-22T02:49:52;9.10;50.40
3067;DHT22;1544;48.834;9.194;2024-03-22T02:52:27;9.10;50.40
3067;DHT22;1544;48.834;9.194;2024-03-22T02:55:02;9.10;50.40
3067;DHT22;1544;48.834;9.194;2024-03-22T02:57:37;9.10;50.60
3067;DHT22;1544;48.834;9.194;2024-03-22T03:00:12;9.10;50.70
3067;DHT22;1544;48.834;9.194;2024-03-22T03:02:47;9.10;50.70
3067;DHT22;1544;48.834;9.194;2024-03-22T03:05:22;9.10;50.80
3067;DHT22;1544;48.834;9.194;2024-03-22T03:07:59;9.10;50.90
3067;DHT22;1544;48.834;9.194;2024-03-22T03:10:34;9.10;51.10
3067;DHT22;1544;48.834;9.194;2024-03-22T03:13:09;9.20;51.30
3067;DHT22;1544;48.834;9.194;2024-03-22T03:15:44;9.20;51.50
3067;DHT22;1544;48.834;9.194;2024-03-22T03:18:19;9.20;51.70
3067;DHT22;1544;48.834;9.194;2024-03-22T03:20:54;9.20;51.70
3067;DHT22;1544;48.834;9.194;2024-03-22T03:23:29;9.30;51.80
3067;DHT22;1544;48.834;9.194;2024-03-22T03:26:04;9.30;51.80
3067;DHT22;1544;48.834;9.194;2024-03-22T03:28:39;9.30;51.90
3067;DHT22;1544;48.834;9.194;2024-03-22T03:31:14;9.30;51.80
3067;DHT22;1544;48.834;9.194;2024-03-22T03:33:49;9.30;52.00
3067;DHT22;1544;48.834;9.194;2024-03-22T03:36:24;9.30;52.00
3067;DHT22;1544;48.834;9.194;2024-03-22T03:38:59;9.30;52.10
3067;DHT22;1544;48.834;9.194;2024-03-22T03:41:34;9.30;52.00
3067;DHT22;1544;48.834;9.194;2024-03-22T03:44:10;9.30;52.10
3067;DHT22;1544;48.834;9.194;2024-03-22T03:46:45;9.30;52.10
3067;DHT22;1544;48.834;9.194;2024-03-22T03:49:20;9.30;52.00
3067;DHT22;1544;48.834;9.194;2024-03-22T03:51:55;9.30;51.90
3067;DHT22;1544;48.834;9.194;2024-03-22T03:54:30;9.30;51.80
3067;DHT22;1544;48.834;9.194;2024-03-22T03:57:05;9.30;51.60
3067;DHT22;1544;48.834;9.194;2024-03-22T03:59:40;9.20;51.40
3067;DHT22;1544;48.834;9.194;2024-03-22T04:02:15;9.20;51.40
3067;DHT22;1544;48.834;9.194;2024-03-22T04:04:52;9.20;51.30
3067;DHT22;1544;48.834;9.194;2024-03-22T04:07:27;9.20;51.20
3067;DHT22;1544;48.834;9.194;2024-03-22T04:10:03;9.20;51.20
3067;DHT22;1544;48.834;9.194;2024-03-22T04:12:39;9.10;51.10
3067;DHT22;1544;48.834;9.194;2024-03-22T04:15:14;9.10;51.10
3067;DHT22;1544;48.834;9.194;2024-03-22T04:17:49;9.10;51.10
3067;DHT22;1544;48.834;9.194;2024-03-22T04:20:24;9.00;51.10
3067;DHT22;1544;48.834;9.194;2024-03-22T04:22:59;9.10;51.20
3067;DHT22;1544;48.834;9.194;2024-03-22T04:25:34;9.00;51.10
3067;DHT22;1544;48.834;9.194;2024-03-22T04:28:09;9.00;51.20
3067;DHT22;1544;48.834;9.194;2024-03-22T04:30:58;9.00;51.30
3067;DHT22;1544;48.834;9.194;2024-03-22T04:33:33;9.00;51.40
3067;DHT22;1544;48.834;9.194;2024-03-22T04:36:08;9.00;51.50
3067;DHT22;1544;48.834;9.194;2024-03-22T04:38:44;9.10;51.50
3067;DHT22;1544;48.834;9.194;2024-03-22T04:41:19;9.10;51.60
3067;DHT22;1544;48.834;9.194;2024-03-22T04:43:54;9.10;51.60
3067;DHT22;1544;48.834;9.194;2024-03-22T04:46:29;9.10;51.70
3067;DHT22;1544;48.834;9.194;2024-03-22T04:49:04;9.10;51.60
3067;DHT22;1544;48.834;9.194;2024-03-22T04:51:39;9.10;51.60
3067;DHT22;1544;48.834;9.194;2024-03-22T04:54:14;9.20;51.60
3067;DHT22;1544;48.834;9.194;2024-03-22T04:56:50;9.20;51.60
3067;DHT22;1544;48.834;9.194;2024-03-22T04:59:24;9.20;51.50
3067;DHT22;1544;48.834;9.194;2024-03-22T05:01:59;9.20;51.40
3067;DHT22;1544;48.834;9.194;2024-03-22T05:04:34;9.20;51.40
3067;DHT22;1544;48.834;9.194;2024-03-22T05:07:09;9.20;51.30
3067;DHT22;1544;48.834;9.194;2024-03-22T05:09:44;9.20;51.30
3067;DHT22;1544;48.834;9.194;2024-03-22T05:12:19;9.20;51.20
3067;DHT22;1544;48.834;9.194;2024-03-22T05:14:54;9.30;51.20
3067;DHT22;1544;48.834;9.194;2024-03-22T05:17:29;9.30;51.10
3067;DHT22;1544;48.834;9.194;2024-03-22T05:20:06;9.30;51.10
3067;DHT22;1544;48.834;9.194;2024-03-22T05:22:45;9.30;51.10
3067;DHT22;1544;48.834;9.194;2024-03-22T05:25:21;9.30;51.10
3067;DHT22;1544;48.834;9.194;2024-03-22T05:27:56;9.30;51.10
3067;DHT22;1544;48.834;9.194;2024-03-22T05:30:31;9.30;51.20
3067;DHT22;1544;48.834;9.194;2024-03-22T05:33:06;9.30;51.20
3067;DHT22;1544;48.834;9.194;2024-03-22T05:35:41;9.30;51.10
3067;DHT22;1544;48.834;9.194;2024-03-22T05:38:16;9.30;51.00
3067;DHT22;1544;48.834;9.194;2024-03-22T05:40:51;9.30;51.00
3067;DHT22;1544;48.834;9.194;2024-03-22T05:43:26;9.30;50.90
3067;DHT22;1544;48.834;9.194;2024-03-22T05:46:01;9.40;51.00
3067;DHT22;1544;48.834;9.194;2024-03-22T05:48:36;9.40;50.90
3067;DHT22;1544;48.834;9.194;2024-03-22T05:51:11;9.40;50.90
3067;DHT22;1544;48.834;9.194;2024-03-22T05:53:46;9.40;50.80
3067;DHT22;1544;48.834;9.194;2024-03-22T05:56:21;9.50;50.80
3067;DHT22;1544;48.834;9.194;2024-03-22T05:58:56;9.50;50.70
3067;DHT22;1544;48.834;9.194;2024-03-22T06:01:32;9.50;50.70
3067;DHT22;1544;48.834;9.194;2024-03-22T06:04:07;9.50;50.70
3067;DHT22;1544;48.834;9.194;2024-03-22T06:06:42;9.50;50.70
3067;DHT22;1544;48.834;9.194;2024-03-22T06:09:17;9.50;50.60
3067;DHT22;1544;48.834;9.194;2024-03-22T06:11:58;9.60;50.60
3067;DHT22;1544;48.834;9.194;2024-03-22T06:14:33;9.50;50.60
3067;DHT22;1544;48.834;9.194;2024-03-22T06:17:08;9.50;50.50
3067;DHT22;1544;48.834;9.194;2024-03-22T06:19:43;9.60;50.50
3067;DHT22;1544;48.834;9.194;2024-03-22T06:22:18;9.60;50.50
3067;DHT22;1544;48.834;9.194;2024-03-22T06:24:53;9.60;50.40
3067;DHT22;1544;48.834;9.194;2024-03-22T06:27:28;9.60;50.40
3067;DHT22;1544;48.834;9.194;2024-03-22T06:30:04;9.60;50.40
3067;DHT22;1544;48.834;9.194;2024-03-22T06:32:39;9.70;50.40
3067;DHT22;1544;48.834;9.194;2024-03-22T06:35:14;9.70;50.40
3067;DHT22;1544;48.834;9.194;2024-03-22T06:37:49;9.70;50.40
3067;DHT22;1544;48.834;9.194;2024-03-22T06:40:24;9.80;50.50
3067;DHT22;1544;48.834;9.194;2024-03-22T06:42:59;9.80;50.50
3067;DHT22;1544;48.834;9.194;2024-03-22T06:45:34;9.90;50.50
3067;DHT22;1544;48.834;9.194;2024-03-22T06:48:09;9.90;50.40
3067;DHT22;1544;48.834;9.194;2024-03-22T06:50:51;10.00;49.40
3067;DHT22;1544;48.834;9.194;2024-03-22T06:53:26;10.10;49.70
3067;DHT22;1544;48.834;9.194;2024-03-22T06:56:02;10.10;49.20
3067;DHT22;1544;48.834;9.194;2024-03-22T06:58:38;10.20;49.20
3067;DHT22;1544;48.834;9.194;2024-03-22T07:01:13;10.20;49.20
3067;DHT22;1544;48.834;9.194;2024-03-22T07:03:49;10.30;49.10
3067;DHT22;1544;48.834;9.194;2024-03-22T07:06:24;10.30;49.10
3067;DHT22;1544;48.834;9.194;2024-03-22T07:08:59;10.40;49.10
3067;DHT22;1544;48.834;9.194;2024-03-22T07:11:34;10.40;49.00
3067;DHT22;1544;48.834;9.194;2024-03-22T07:14:09;10.50;48.90
3067;DHT22;1544;48.834;9.194;2024-03-22T07:16:44;10.50;48.70
3067;DHT22;1544;48.834;9.194;2024-03-22T07:19:20;10.50;48.40
3067;DHT22;1544;48.834;9.194;2024-03-22T07:21:55;10.60;48.00
3067;DHT22;1544;48.834;9.194;2024-03-22T07:24:30;10.60;47.60
3067;DHT22;1544;48.834;9.194;2024-03-22T07:27:05;10.70;47.50
3067;DHT22;1544;48.834;9.194;2024-03-22T07:29:41;10.80;47.30
3067;DHT22;1544;48.834;9.194;2024-03-22T07:32:16;10.80;47.00
3067;DHT22;1544;48.834;9.194;2024-03-22T07:34:51;10.90;46.70
3067;DHT22;1544;48.834;9.194;2024-03-22T07:37:26;10.90;46.40
3067;DHT22;1544;48.834;9.194;2024-03-22T07:40:02;11.00;46.40
3067;DHT22;1544;48.834;9.194;2024-03-22T07:42:37;11.10;46.30
3067;DHT22;1544;48.834;9.194;2024-03-22T07:45:15;11.70;46.50
3067;DHT22;1544;48.834;9.194;2024-03-22T07:47:50;11.20;45.90
3067;DHT22;1544;48.834;9.194;2024-03-22T07:50:26;11.30;45.70
3067;DHT22;1544;48.834;9.194;2024-03-22T07:53:01;11.40;45.50
3067;DHT22;1544;48.834;9.194;2024-03-22T07:55:36;11.60;45.30
3067;DHT22;1544;48.834;9.194;2024-03-22T07:58:11;11.70;45.20
3067;DHT22;1544;48.834;9.194;2024-03-22T08:00:46;11.80;45.00
3067;DHT22;1544;48.834;9.194;2024-03-22T08:03:22;11.90;44.80
3067;DHT22;1544;48.834;9.194;2024-03-22T08:05:58;12.00;44.60
3067;DHT22;1544;48.834;9.194;2024-03-22T08:08:33;12.10;44.40
3067;DHT22;1544;48.834;9.194;2024-03-22T08:11:08;12.30;44.10
3067;DHT22;1544;48.834;9.194;2024-03-22T08:13:44;12.40;43.90
3067;DHT22;1544;48.834;9.194;2024-03-22T08:16:19;12.50;43.60
3067;DHT22;1544;48.834;9.194;2024-03-22T08:18:54;12.70;43.40
3067;DHT22;1544;48.834;9.194;2024-03-22T08:21:29;12.80;43.20
3067;DHT22;1544;48.834;9.194;2024-03-22T08:24:04;13.00;43.10
3067;DHT22;1544;48.834;9.194;2024-03-22T08:26:40;13.10;42.70
3067;DHT22;1544;48.834;9.194;2024-03-22T08:29:15;13.30;42.50
3067;DHT22;1544;48.834;9.194;2024-03-22T08:31:50;13.50;42.10
3067;DHT22;1544;48.834;9.194;2024-03-22T08:34:25;13.70;41.90
3067;DHT22;1544;48.834;9.194;2024-03-22T08:37:00;13.80;41.50
3067;DHT22;1544;48.834;9.194;2024-03-22T08:39:38;14.00;41.30
3067;DHT22;1544;48.834;9.194;2024-03-22T08:42:13;14.20;41.20
3067;DHT22;1544;48.834;9.194;2024-03-22T08:44:48;14.40;40.90
3067;DHT22;1544;48.834;9.194;2024-03-22T08:47:23;14.60;40.70
3067;DHT22;1544;48.834;9.194;2024-03-22T08:49:58;14.70;40.40
3067;DHT22;1544;48.834;9.194;2024-03-22T08:52:34;14.80;40.10
3067;DHT22;1544;48.834;9.194;2024-03-22T08:55:10;15.00;39.30
3067;DHT22;1544;48.834;9.194;2024-03-22T08:57:45;15.10;39.30
3067;DHT22;1544;48.834;9.194;2024-03-22T09:00:20;15.20;39.20
3067;DHT22;1544;48.834;9.194;2024-03-22T09:02:55;15.30;39.10
3067;DHT22;1544;48.834;9.194;2024-03-22T09:05:31;15.40;38.90
3067;DHT22;1544;48.834;9.194;2024-03-22T09:08:08;15.50;38.80
3067;DHT22;1544;48.834;9.194;2024-03-22T09:10:43;15.70;38.90
3067;DHT22;1544;48.834;9.194;2024-03-22T09:13:18;15.70;38.60
3067;DHT22;1544;48.834;9.194;2024-03-22T09:15:59;15.80;38.50
3067;DHT22;1544;48.834;9.194;2024-03-22T09:18:34;16.00;38.50
3067;DHT22;1544;48.834;9.194;2024-03-22T09:21:10;16.10;38.30
3067;DHT22;1544;48.834;9.194;2024-03-22T09:23:45;16.30;38.30
3067;DHT22;1544;48.834;9.194;2024-03-22T09:26:20;16.40;38.20
3067;DHT22;1544;48.834;9.194;2024-03-22T09:28:55;16.50;38.00
3067;DHT22;1544;48.834;9.194;2024-03-22T09:31:30;16.60;37.90
3067;DHT22;1544;48.834;9.194;2024-03-22T09:34:07;16.80;37.80
3067;DHT22;1544;48.834;9.194;2024-03-22T09:36:42;16.90;37.20
3067;DHT22;1544;48.834;9.194;2024-03-22T09:39:17;17.00;36.40
3067;DHT22;1544;48.834;9.194;2024-03-22T09:41:57;17.20;36.50
3067;DHT22;1544;48.834;9.194;2024-03-22T09:44:32;17.30;36.50
3067;DHT22;1544;48.834;9.194;2024-03-22T09:47:08;17.50;36.50
3067;DHT22;1544;48.834;9.194;2024-03-22T09:49:44;17.60;34.00
3067;DHT22;1544;48.834;9.194;2024-03-22T09:52:22;17.60;32.70
3067;DHT22;1544;48.834;9.194;2024-03-22T09:54:57;17.80;32.90
3067;DHT22;1544;48.834;9.194;2024-03-22T09:57:35;17.90;32.30
3067;DHT22;1544;48.834;9.194;2024-03-22T10:00:13;18.00;32.10
3067;DHT22;1544;48.834;9.194;2024-03-22T10:02:51;18.00;32.20
3067;DHT22;1544;48.834;9.194;2024-03-22T10:05:28;18.20;31.80
3067;DHT22;1544;48.834;9.194;2024-03-22T10:08:04;18.40;31.90
3067;DHT22;1544;48.834;9.194;2024-03-22T10:10:41;18.40;31.50
3067;DHT22;1544;48.834;9.194;2024-03-22T10:13:17;18.60;31.00
3067;DHT22;1544;48.834;9.194;2024-03-22T10:15:52;18.70;31.00
3067;DHT22;1544;48.834;9.194;2024-03-22T10:18:27;18.80;31.00
3067;DHT22;1544;48.834;9.194;2024-03-22T10:21:03;18.80;31.00
3067;DHT22;1544;48.834;9.194;2024-03-22T10:23:39;18.90;31.00
3067;DHT22;1544;48.834;9.194;2024-03-22T10:26:15;18.90;30.50
3067;DHT22;1544;48.834;9.194;2024-03-22T10:28:50;19.00;30.70
3067;DHT22;1544;48.834;9.194;2024-03-22T10:31:26;19.10;30.50
3067;DHT22;1544;48.834;9.194;2024-03-22T10:34:03;19.10;30.20
3067;DHT22;1544;48.834;9.194;2024-03-22T10:36:41;19.10;30.50
3067;DHT22;1544;48.834;9.194;2024-03-22T10:39:18;19.20;30.00
3067;DHT22;1544;48.834;9.194;2024-03-22T10:41:56;19.30;30.00
3067;DHT22;1544;48.834;9.194;2024-03-22T10:44:31;19.40;30.10
3067;DHT22;1544;48.834;9.194;2024-03-22T10:47:09;19.40;29.60
3067;DHT22;1544;48.834;9.194;2024-03-22T10:49:45;19.40;29.70
3067;DHT22;1544;48.834;9.194;2024-03-22T10:52:23;19.40;29.90
3067;DHT22;1544;48.834;9.194;2024-03-22T10:54:59;19.60;29.80
3067;DHT22;1544;48.834;9.194;2024-03-22T10:57:36;19.80;29.40
3067;DHT22;1544;48.834;9.194;2024-03-22T11:00:12;19.80;29.50
3067;DHT22;1544;48.834;9.194;2024-03-22T11:02:48;19.80;29.30
3067;DHT22;1544;48.834;9.194;2024-03-22T11:05:23;19.80;29.20
3067;DHT22;1544;48.834;9.194;2024-03-22T11:08:04;19.80;29.30
3067;DHT22;1544;48.834;9.194;2024-03-22T11:10:39;19.80;29.20
3067;DHT22;1544;48.834;9.194;2024-03-22T11:13:16;19.90;29.20
3067;DHT22;1544;48.834;9.194;2024-03-22T11:15:52;20.00;29.40
3067;DHT22;1544;48.834;9.194;2024-03-22T11:18:27;20.00;29.20
3067;DHT22;1544;48.834;9.194;2024-03-22T11:21:02;20.00;29.20
3067;DHT22;1544;48.834;9.194;2024-03-22T11:23:39;20.10;29.50
3067;DHT22;1544;48.834;9.194;2024-03-22T11:26:14;20.20;29.60
3067;DHT22;1544;48.834;9.194;2024-03-22T11:28:49;20.30;29.50
3067;DHT22;1544;48.834;9.194;2024-03-22T11:31:24;20.50;29.80
3067;DHT22;1544;48.834;9.194;2024-03-22T11:34:02;20.60;29.50
3067;DHT22;1544;48.834;9.194;2024-03-22T11:36:37;20.60;29.20
3067;DHT22;1544;48.834;9.194;2024-03-22T11:39:12;20.80;28.50
3067;DHT22;1544;48.834;9.194;2024-03-22T11:41:48;20.80;27.40
3067;DHT22;1544;48.834;9.194;2024-03-22T11:44:25;20.90;27.60
3067;DHT22;1544;48.834;9.194;2024-03-22T11:47:00;21.00;27.60
3067;DHT22;1544;48.834;9.194;2024-03-22T11:49:35;21.10;27.40
3067;DHT22;1544;48.834;9.194;2024-03-22T11:52:10;21.20;27.10
3067;DHT22;1544;48.834;9.194;2024-03-22T11:54:50;21.20;27.00
3067;DHT22;1544;48.834;9.194;2024-03-22T11:57:28;21.30;26.70
3067;DHT22;1544;48.834;9.194;2024-03-22T12:00:04;21.40;26.80
3067;DHT22;1544;48.834;9.194;2024-03-22T12:02:49;21.50;27.00
3067;DHT22;1544;48.834;9.194;2024-03-22T12:05:24;21.70;26.80
3067;DHT22;1544;48.834;9.194;2024-03-22T12:08:01;21.80;27.50
3067;DHT22;1544;48.834;9.194;2024-03-22T12:10:37;22.00;27.40
3067;DHT22;1544;48.834;9.194;2024-03-22T12:13:12;22.10;26.80
3067;DHT22;1544;48.834;9.194;2024-03-22T12:15:47;22.10;27.10
3067;DHT22;1544;48.834;9.194;2024-03-22T12:18:22;22.10;26.80
3067;DHT22;1544;48.834;9.194;2024-03-22T12:20:57;22.10;27.30
3067;DHT22;1544;48.834;9.194;2024-03-22T12:23:32;22.10;27.20
3067;DHT22;1544;48.834;9.194;2024-03-22T12:26:09;22.10;27.00
3067;DHT22;1544;48.834;9.194;2024-03-22T12:28:44;22.20;27.40
3067;DHT22;1544;48.834;9.194;2024-03-22T12:31:19;22.30;27.20
3067;DHT22;1544;48.834;9.194;2024-03-22T12:33:54;22.40;27.10
3067;DHT22;1544;48.834;9.194;2024-03-22T12:36:30;22.40;27.00
3067;DHT22;1544;48.834;9.194;2024-03-22T12:39:05;22.50;27.20
3067;DHT22;1544;48.834;9.194;2024-03-22T12:41:41;22.50;27.30
3067;DHT22;1544;48.834;9.194;2024-03-22T12:44:16;22.60;27.30
3067;DHT22;1544;48.834;9.194;2024-03-22T12:46:51;22.70;27.00
3067;DHT22;1544;48.834;9.194;2024-03-22T12:49:26;22.70;26.90
3067;DHT22;1544;48.834;9.194;2024-03-22T12:52:02;22.70;26.80
3067;DHT22;1544;48.834;9.194;2024-03-22T12:54:37;22.80;26.70
3067;DHT22;1544;48.834;9.194;2024-03-22T12:57:12;22.90;27.20
3067;DHT22;1544;48.834;9.194;2024-03-22T12:59:47;23.00;27.20
3067;DHT22;1544;48.834;9.194;2024-03-22T13:02:22;23.20;27.20
3067;DHT22;1544;48.834;9.194;2024-03-22T13:04:58;23.40;27.40
3067;DHT22;1544;48.834;9.194;2024-03-22T13:07:33;23.60;27.50
3067;DHT22;1544;48.834;9.194;2024-03-22T13:10:09;23.60;27.40
3067;DHT22;1544;48.834;9.194;2024-03-22T13:12:44;23.70;27.10
3067;DHT22;1544;48.834;9.194;2024-03-22T13:15:20;23.80;27.10
3067;DHT22;1544;48.834;9.194;2024-03-22T13:17:55;23.80;27.40
3067;DHT22;1544;48.834;9.194;2024-03-22T13:20:31;23.80;27.50
3067;DHT22;1544;48.834;9.194;2024-03-22T13:23:07;23.90;27.30
3067;DHT22;1544;48.834;9.194;2024-03-22T13:25:46;23.90;27.10
3067;DHT22;1544;48.834;9.194;2024-03-22T13:28:21;23.90;26.90
3067;DHT22;1544;48.834;9.194;2024-03-22T13:31:04;24.00;27.20
3067;DHT22;1544;48.834;9.194;2024-03-22T13:33:42;24.00;27.20
3067;DHT22;1544;48.834;9.194;2024-03-22T13:36:17;24.00;26.90
3067;DHT22;1544;48.834;9.194;2024-03-22T13:38:53;23.80;26.80
3067;DHT22;1544;48.834;9.194;2024-03-22T13:41:28;23.90;27.10
3067;DHT22;1544;48.834;9.194;2024-03-22T13:44:03;23.70;27.10
3067;DHT22;1544;48.834;9.194;2024-03-22T13:46:38;23.60;26.80
3067;DHT22;1544;48.834;9.194;2024-03-22T13:49:17;23.60;27.20
3067;DHT22;1544;48.834;9.194;2024-03-22T13:51:58;23.60;27.20
3067;DHT22;1544;48.834;9.194;2024-03-22T13:54:36;23.50;27.50
3067;DHT22;1544;48.834;9.194;2024-03-22T13:57:11;23.50;27.40
3067;DHT22;1544;48.834;9.194;2024-03-22T13:59:46;23.60;27.40
3067;DHT22;1544;48.834;9.194;2024-03-22T14:02:21;23.60;27.70
3067;DHT22;1544;48.834;9.194;2024-03-22T14:04:57;23.50;27.40
3067;DHT22;1544;48.834;9.194;2024-03-22T14:07:32;23.50;27.10
3067;DHT22;1544;48.834;9.194;2024-03-22T14:10:07;23.30;26.90
3067;DHT22;1544;48.834;9.194;2024-03-22T14:12:45;23.10;27.10
3067;DHT22;1544;48.834;9.194;2024-03-22T14:15:20;22.90;27.30
3067;DHT22;1544;48.834;9.194;2024-03-22T14:17:55;22.80;27.50
3067;DHT22;1544;48.834;9.194;2024-03-22T14:20:30;22.70;27.50
3067;DHT22;1544;48.834;9.194;2024-03-22T14:23:06;22.60;27.30
3067;DHT22;1544;48.834;9.194;2024-03-22T14:25:41;22.30;27.10
3067;DHT22;1544;48.834;9.194;2024-03-22T14:28:19;22.10;26.70
3067;DHT22;1544;48.834;9.194;2024-03-22T14:30:54;22.10;26.60
3067;DHT22;1544;48.834;9.194;2024-03-22T14:33:29;21.90;26.20
3067;DHT22;1544;48.834;9.194;2024-03-22T14:36:05;21.70;25.70
3067;DHT22;1544;48.834;9.194;2024-03-22T14:38:41;21.70;25.90
3067;DHT22;1544;48.834;9.194;2024-03-22T14:41:16;21.60;25.70
3067;DHT22;1544;48.834;9.194;2024-03-22T14:43:51;21.50;25.60
3067;DHT22;1544;48.834;9.194;2024-03-22T14:46:26;21.40;25.70
3067;DHT22;1544;48.834;9.194;2024-03-22T14:49:03;21.20;25.50
3067;DHT22;1544;48.834;9.194;2024-03-22T14:51:39;21.20;25.40
3067;DHT22;1544;48.834;9.194;2024-03-22T14:54:15;21.10;25.60
3067;DHT22;1544;48.834;9.194;2024-03-22T14:56:51;21.00;25.70
3067;DHT22;1544;48.834;9.194;2024-03-22T14:59:29;20.90;25.80
3067;DHT22;1544;48.834;9.194;2024-03-22T15:02:04;20.90;26.00
3067;DHT22;1544;48.834;9.194;2024-03-22T15:04:39;20.90;25.90
3067;DHT22;1544;48.834;9.194;2024-03-22T15:07:14;20.90;25.70
3067;DHT22;1544;48.834;9.194;2024-03-22T15:09:50;20.90;25.30
3067;DHT22;1544;48.834;9.194;2024-03-22T15:12:25;20.80;25.40
3067;DHT22;1544;48.834;9.194;2024-03-22T15:15:00;20.70;25.50
3067;DHT22;1544;48.834;9.194;2024-03-22T15:17:35;20.70;25.70
3067;DHT22;1544;48.834;9.194;2024-03-22T15:20:11;20.70;25.80
3067;DHT22;1544;48.834;9.194;2024-03-22T15:22:46;20.70;26.00
3067;DHT22;1544;48.834;9.194;2024-03-22T15:25:21;20.60;25.90
3067;DHT22;1544;48.834;9.194;2024-03-22T15:27:56;20.60;26.00
3067;DHT22;1544;48.834;9.194;2024-03-22T15:30:31;20.50;26.20
3067;DHT22;1544;48.834;9.194;2024-03-22T15:33:08;20.50;26.40
3067;DHT22;1544;48.834;9.194;2024-03-22T15:35:44;20.40;26.60
3067;DHT22;1544;48.834;9.194;2024-03-22T15:38:24;20.40;26.90
3067;DHT22;1544;48.834;9.194;2024-03-22T15:40:59;20.40;26.90
3067;DHT22;1544;48.834;9.194;2024-03-22T15:43:34;20.30;27.00
3067;DHT22;1544;48.834;9.194;2024-03-22T15:46:09;20.30;26.90
3067;DHT22;1544;48.834;9.194;2024-03-22T15:48:44;20.20;26.90
3067;DHT22;1544;48.834;9.194;2024-03-22T15:51:19;20.20;27.00
3067;DHT22;1544;48.834;9.194;2024-03-22T15:53:54;20.10;26.90
3067;DHT22;1544;48.834;9.194;2024-03-22T15:56:29;20.10;27.10
3067;DHT22;1544;48.834;9.194;2024-03-22T15:59:05;20.10;27.10
3067;DHT22;1544;48.834;9.194;2024-03-22T16:01:40;20.00;27.20
3067;DHT22;1544;48.834;9.194;2024-03-22T16:04:15;19.90;27.30
3067;DHT22;1544;48.834;9.194;2024-03-22T16:06:50;19.90;27.40
3067;DHT22;1544;48.834;9.194;2024-03-22T16:09:26;19.90;27.50
3067;DHT22;1544;48.834;9.194;2024-03-22T16:12:01;19.90;27.60
3067;DHT22;1544;48.834;9.194;2024-03-22T16:14:36;19.90;27.60
3067;DHT22;1544;48.834;9.194;2024-03-22T16:17:13;19.70;27.50
3067;DHT22;1544;48.834;9.194;2024-03-22T16:19:48;19.70;27.70
3067;DHT22;1544;48.834;9.194;2024-03-22T16:22:23;19.70;27.80
3067;DHT22;1544;48.834;9.194;2024-03-22T16:24:58;19.70;27.80
3067;DHT22;1544;48.834;9.194;2024-03-22T16:27:33;19.70;27.80
3067;DHT22;1544;48.834;9.194;2024-03-22T16:30:09;19.80;27.80
3067;DHT22;1544;48.834;9.194;2024-03-22T16:32:44;19.90;27.70
3067;DHT22;1544;48.834;9.194;2024-03-22T16:35:20;20.00;27.80
3067;DHT22;1544;48.834;9.194;2024-03-22T16:37:55;20.10;27.90
3067;DHT22;1544;48.834;9.194;2024-03-22T16:40:30;20.20;27.90
3067;DHT22;1544;48.834;9.194;2024-03-22T16:43:05;20.20;27.90
3067;DHT22;1544;48.834;9.194;2024-03-22T16:45:40;20.10;27.70
3067;DHT22;1544;48.834;9.194;2024-03-22T16:48:15;20.10;27.90
3067;DHT22;1544;48.834;9.194;2024-03-22T16:50:51;19.90;28.00
3067;DHT22;1544;48.834;9.194;2024-03-22T16:53:26;19.80;28.00
3067;DHT22;1544;48.834;9.194;2024-03-22T16:56:01;19.70;28.10
3067;DHT22;1544;48.834;9.194;2024-03-22T16:58:36;19.60;28.10
3067;DHT22;1544;48.834;9.194;2024-03-22T17:01:11;19.60;28.30